Time;durP1;ratioP1;P1;durP2;ratioP2;P2;SDS_P1;SDS_P2;PMS_P1;PMS_P2;Temp;Humidity;BMP_temperature;BMP_pressure;BME280_temperature;BME280_humidity;BME280_pressure;Samples;Min_cycle;Max_cycle;Signal;HPM_P1;HPM_P2
2023/06/10 00:01:38;;;;;;;8.32;5.03;;;17.20;99.70;;;;;;5025865;28;20049;-60
2023/06/10 00:04:04;;;;;;;7.55;4.50;;;17.20;99.90;;;;;;5030062;28;20487;-60
2023/06/10 00:06:35;;;;;;;9.40;4.75;;;17.20;99.80;;;;;;5029564;28;20083;-61
2023/06/10 00:09:10;;;;;;;7.50;4.63;;;17.10;99.90;;;;;;5036881;28;20060;-61
2023/06/10 00:11:37;;;;;;;8.63;4.32;;;17.10;99.90;;;;;;5030658;28;20504;-60
2023/06/10 00:14:06;;;;;;;9.00;4.90;;;17.00;99.90;;;;;;5044463;28;20076;-59
2023/06/10 00:16:32;;;;;;;7.68;4.40;;;16.90;99.90;;;;;;5024739;28;20140;-60
2023/06/10 00:19:01;;;;;;;7.53;4.80;;;16.90;99.90;;;;;;5028066;28;20079;-60
2023/06/10 00:21:37;;;;;;;7.68;4.57;;;16.80;99.90;;;;;;5025109;28;20087;-61
2023/06/10 00:24:11;;;;;;;10.68;4.72;;;16.80;99.90;;;;;;5027601;28;20052;-61
2023/06/10 00:26:41;;;;;;;8.43;4.60;;;16.80;99.90;;;;;;5027775;28;20057;-61
2023/06/10 00:29:07;;;;;;;11.00;4.47;;;16.70;99.90;;;;;;5028627;28;20470;-60
2023/06/10 00:31:37;;;;;;;9.02;4.70;;;16.70;99.90;;;;;;5027639;28;20502;-60
2023/06/10 00:34:04;;;;;;;12.23;4.75;;;16.60;99.90;;;;;;5026354;28;20047;-59
2023/06/10 00:36:30;;;;;;;10.48;5.07;;;16.60;99.90;;;;;;5013813;28;20037;-61
2023/06/10 00:38:56;;;;;;;9.32;4.63;;;16.60;99.90;;;;;;5031237;28;20044;-59
2023/06/10 00:41:22;;;;;;;7.72;4.78;;;16.50;99.90;;;;;;5033065;28;20041;-60
2023/06/10 00:43:48;;;;;;;8.65;4.70;;;16.50;99.90;;;;;;5027174;28;20498;-60
2023/06/10 00:46:15;;;;;;;12.27;5.22;;;16.50;99.90;;;;;;5002027;28;20069;-60
2023/06/10 00:48:42;;;;;;;12.98;5.10;;;16.50;99.90;;;;;;5022294;28;20111;-61
2023/06/10 00:51:09;;;;;;;9.65;5.03;;;16.40;99.90;;;;;;5028001;28;20041;-61
2023/06/10 00:53:37;;;;;;;8.27;4.80;;;16.50;99.90;;;;;;5029412;28;20049;-60
2023/06/10 00:56:03;;;;;;;9.85;4.55;;;16.40;99.90;;;;;;5023278;28;20036;-60
2023/06/10 00:58:29;;;;;;;11.77;5.20;;;16.40;99.90;;;;;;5026092;28;20069;-59
2023/06/10 01:00:55;;;;;;;7.93;4.65;;;16.40;99.90;;;;;;5022077;28;20140;-60
2023/06/10 01:03:21;;;;;;;10.23;5.35;;;16.40;99.90;;;;;;5019391;28;20048;-61
2023/06/10 01:06:04;;;;;;;9.10;4.88;;;16.30;99.90;;;;;;5031141;28;20563;-59
2023/06/10 01:08:41;;;;;;;6.97;4.25;;;16.40;99.90;;;;;;5025507;28;20051;-61
2023/06/10 01:11:13;;;;;;;9.68;4.60;;;16.30;99.90;;;;;;5039431;28;20041;-60
2023/06/10 01:13:41;;;;;;;10.77;5.00;;;16.30;99.90;;;;;;5028608;28;20033;-61
2023/06/10 01:16:08;;;;;;;6.82;4.82;;;16.20;99.90;;;;;;5024431;28;20071;-59
2023/06/10 01:18:34;;;;;;;10.52;4.60;;;16.20;99.90;;;;;;5024941;28;20092;-59
2023/06/10 01:21:00;;;;;;;9.20;4.65;;;16.20;99.90;;;;;;5028578;28;20133;-60
2023/06/10 01:23:26;;;;;;;7.30;4.47;;;16.10;99.90;;;;;;5024255;28;20041;-60
2023/06/10 01:26:07;;;;;;;8.02;4.82;;;16.10;99.90;;;;;;5026078;28;20053;-61
2023/06/10 01:28:48;;;;;;;12.00;4.63;;;16.10;99.90;;;;;;5041398;28;20056;-60
2023/06/10 01:31:25;;;;;;;8.25;4.93;;;16.10;99.90;;;;;;5026142;28;20041;-60
2023/06/10 01:33:52;;;;;;;10.20;4.80;;;16.00;99.90;;;;;;5027094;28;20040;-60
2023/06/10 01:36:21;;;;;;;10.30;5.45;;;16.00;99.90;;;;;;5029020;28;21095;-61
2023/06/10 01:38:49;;;;;;;10.52;4.82;;;15.90;99.90;;;;;;5024736;28;20132;-60
2023/06/10 01:41:21;;;;;;;7.88;4.45;;;15.90;99.90;;;;;;5026651;28;20155;-60
2023/06/10 01:43:47;;;;;;;11.65;4.90;;;15.90;99.90;;;;;;5029502;28;20046;-61
2023/06/10 01:46:14;;;;;;;7.25;4.60;;;15.90;99.90;;;;;;5023509;28;20069;-61
2023/06/10 01:48:41;;;;;;;8.05;4.45;;;15.80;99.90;;;;;;5044006;28;20040;-61
2023/06/10 01:51:07;;;;;;;7.47;4.10;;;15.80;99.90;;;;;;5027270;28;20044;-60
2023/06/10 01:53:33;;;;;;;8.05;4.50;;;15.80;99.90;;;;;;5026416;28;20049;-60
2023/06/10 01:55:59;;;;;;;9.52;4.82;;;15.70;99.90;;;;;;5027108;28;20049;-59
2023/06/10 01:58:25;;;;;;;10.60;4.38;;;15.70;99.90;;;;;;5027288;28;20054;-61
2023/06/10 02:00:51;;;;;;;10.65;4.22;;;15.60;99.90;;;;;;5027254;28;20099;-60
2023/06/10 02:03:17;;;;;;;8.48;4.25;;;15.60;99.90;;;;;;5033372;28;20041;-60
2023/06/10 02:05:43;;;;;;;11.35;4.65;;;15.60;99.90;;;;;;5015462;28;20048;-61
2023/06/10 02:08:08;;;;;;;8.25;4.72;;;15.60;99.90;;;;;;5021973;28;20509;-60
2023/06/10 02:10:34;;;;;;;8.95;4.55;;;15.50;99.90;;;;;;5027703;28;20108;-61
2023/06/10 02:13:00;;;;;;;8.52;4.47;;;15.40;99.90;;;;;;5029908;28;20412;-60
2023/06/10 02:15:26;;;;;;;10.75;4.97;;;15.40;99.90;;;;;;5030404;28;20053;-60
2023/06/10 02:17:52;;;;;;;11.43;4.68;;;15.40;99.90;;;;;;5015465;28;20044;-59
2023/06/10 02:20:18;;;;;;;8.90;4.78;;;15.30;99.90;;;;;;5028233;28;20040;-60
2023/06/10 02:22:45;;;;;;;7.20;4.93;;;15.30;99.90;;;;;;5027776;28;20049;-60
2023/06/10 02:25:11;;;;;;;9.93;4.97;;;15.20;99.90;;;;;;5028967;28;20056;-60
2023/06/10 02:27:37;;;;;;;11.57;5.13;;;15.20;99.90;;;;;;5029050;28;20752;-61
2023/06/10 02:30:03;;;;;;;12.32;5.50;;;15.10;99.90;;;;;;5032105;28;20048;-61
2023/06/10 02:32:29;;;;;;;11.18;4.88;;;15.10;99.90;;;;;;5026511;28;20902;-60
2023/06/10 02:34:55;;;;;;;7.07;4.78;;;15.00;99.90;;;;;;5036576;28;20052;-59
2023/06/10 02:37:21;;;;;;;10.80;5.10;;;15.00;99.90;;;;;;5011174;28;20045;-60
2023/06/10 02:39:46;;;;;;;9.45;5.50;;;14.90;99.90;;;;;;5026418;28;20401;-60
2023/06/10 02:42:12;;;;;;;11.98;5.30;;;14.80;99.90;;;;;;5029900;28;20513;-59
2023/06/10 02:44:39;;;;;;;11.20;5.63;;;14.80;99.90;;;;;;5027563;28;20382;-60
2023/06/10 02:47:05;;;;;;;9.95;5.38;;;14.70;99.90;;;;;;5026299;28;20045;-60
2023/06/10 02:49:31;;;;;;;10.10;5.25;;;14.70;99.90;;;;;;5029037;28;20391;-61
2023/06/10 02:51:56;;;;;;;9.45;5.25;;;14.60;99.90;;;;;;5026010;28;20130;-61
2023/06/10 02:54:23;;;;;;;8.15;5.43;;;14.60;99.90;;;;;;5033423;28;20474;-60
2023/06/10 02:56:50;;;;;;;7.07;4.97;;;14.50;99.90;;;;;;5028542;28;20065;-60
2023/06/10 02:59:16;;;;;;;12.05;5.00;;;14.50;99.90;;;;;;5030087;28;20080;-61
2023/06/10 03:01:42;;;;;;;8.02;5.30;;;14.40;99.90;;;;;;5028881;28;20164;-60
2023/06/10 03:04:09;;;;;;;9.50;5.18;;;14.40;99.90;;;;;;5028008;28;20047;-60
2023/06/10 03:06:35;;;;;;;10.50;5.88;;;14.40;99.90;;;;;;5010981;28;20037;-61
2023/06/10 03:09:03;;;;;;;12.07;5.40;;;14.30;99.90;;;;;;5026598;28;20036;-60
2023/06/10 03:11:30;;;;;;;8.65;5.20;;;14.30;99.90;;;;;;5019114;28;20069;-60
2023/06/10 03:13:56;;;;;;;9.10;5.68;;;14.20;99.90;;;;;;5027202;28;20041;-60
2023/06/10 03:16:22;;;;;;;11.88;5.53;;;14.20;99.90;;;;;;5026631;28;20543;-60
2023/06/10 03:18:49;;;;;;;10.57;5.53;;;14.10;99.90;;;;;;5045609;28;20037;-61
2023/06/10 03:21:15;;;;;;;11.77;5.80;;;14.10;99.90;;;;;;5026868;28;20045;-61
2023/06/10 03:23:40;;;;;;;9.30;5.53;;;14.10;99.90;;;;;;5006548;28;20551;-61
2023/06/10 03:26:07;;;;;;;10.00;5.45;;;14.00;99.90;;;;;;5027694;28;20053;-61
2023/06/10 03:28:33;;;;;;;8.50;5.18;;;14.00;99.90;;;;;;5008858;28;20052;-61
2023/06/10 03:30:58;;;;;;;15.05;5.78;;;14.00;99.90;;;;;;5030075;28;20042;-60
2023/06/10 03:33:24;;;;;;;12.55;5.80;;;14.10;99.90;;;;;;5030382;28;20139;-60
2023/06/10 03:35:50;;;;;;;12.18;5.90;;;14.00;99.90;;;;;;5025752;28;20110;-60
2023/06/10 03:38:16;;;;;;;13.90;5.75;;;14.00;99.90;;;;;;5025053;28;20992;-61
2023/06/10 03:40:42;;;;;;;8.35;5.72;;;14.00;99.90;;;;;;5032668;28;20033;-60
2023/06/10 03:43:08;;;;;;;14.68;6.00;;;14.00;99.90;;;;;;5023833;28;20769;-60
2023/06/10 03:45:34;;;;;;;12.68;6.22;;;14.00;99.90;;;;;;5029735;28;20033;-61
2023/06/10 03:48:03;;;;;;;10.70;6.00;;;14.00;99.90;;;;;;5029067;28;20041;-60
2023/06/10 03:50:29;;;;;;;10.38;5.65;;;14.00;99.90;;;;;;5026486;28;20095;-59
2023/06/10 03:52:55;;;;;;;9.23;5.57;;;14.00;99.90;;;;;;5026215;28;20044;-59
2023/06/10 03:55:21;;;;;;;14.82;6.53;;;14.00;99.90;;;;;;5027391;28;20045;-60
2023/06/10 03:57:48;;;;;;;11.57;6.28;;;14.00;99.90;;;;;;5027696;28;20041;-61
2023/06/10 04:00:17;;;;;;;13.68;6.13;;;14.00;99.90;;;;;;5028112;28;20045;-60
2023/06/10 04:02:49;;;;;;;12.20;6.40;;;14.00;99.90;;;;;;5025053;28;20049;-60
2023/06/10 04:05:16;;;;;;;12.82;6.30;;;13.90;99.90;;;;;;5027059;28;20099;-60
2023/06/10 04:07:43;;;;;;;13.02;6.60;;;13.90;99.90;;;;;;5029500;28;20116;-60
2023/06/10 04:10:13;;;;;;;10.25;6.50;;;13.90;99.90;;;;;;5029213;28;20048;-60
2023/06/10 04:12:39;;;;;;;14.77;6.80;;;13.80;99.90;;;;;;5027383;28;20042;-60
2023/06/10 04:15:05;;;;;;;11.32;6.68;;;13.80;99.90;;;;;;5023678;28;20060;-59
2023/06/10 04:17:31;;;;;;;12.45;7.60;;;13.80;99.90;;;;;;4999967;28;20320;-60
2023/06/10 04:19:57;;;;;;;13.27;6.85;;;13.80;99.90;;;;;;5024965;28;20045;-60
2023/06/10 04:22:23;;;;;;;12.90;6.68;;;13.80;99.90;;;;;;5025698;28;20139;-59
2023/06/10 04:24:49;;;;;;;12.40;7.07;;;13.80;99.90;;;;;;5026069;28;20055;-61
2023/06/10 04:27:15;;;;;;;15.90;7.07;;;13.80;99.90;;;;;;5026534;28;20041;-59
2023/06/10 04:29:41;;;;;;;13.68;7.07;;;13.90;99.90;;;;;;5025947;28;20086;-60
2023/06/10 04:32:07;;;;;;;12.27;6.93;;;13.90;99.90;;;;;;5041338;28;20090;-60
2023/06/10 04:34:33;;;;;;;10.55;6.78;;;13.90;99.90;;;;;;5024879;28;20045;-60
2023/06/10 04:36:59;;;;;;;12.77;7.10;;;14.00;99.90;;;;;;5041724;28;20127;-60
2023/06/10 04:39:25;;;;;;;17.38;7.10;;;14.00;99.90;;;;;;5024818;28;20033;-61
2023/06/10 04:41:51;;;;;;;13.45;6.65;;;14.10;99.90;;;;;;5031809;28;20514;-60
2023/06/10 04:44:18;;;;;;;15.63;7.60;;;14.10;99.90;;;;;;5024185;28;20750;-60
2023/06/10 04:46:44;;;;;;;15.63;7.53;;;14.10;99.90;;;;;;5024731;28;20047;-61
2023/06/10 04:49:10;;;;;;;17.92;7.40;;;14.20;99.90;;;;;;5026878;28;20041;-60
2023/06/10 04:51:35;;;;;;;13.10;7.32;;;14.20;99.90;;;;;;5028325;28;20036;-60
2023/06/10 04:54:03;;;;;;;17.33;7.40;;;14.30;99.90;;;;;;5026946;28;20041;-61
2023/06/10 04:56:30;;;;;;;11.27;6.95;;;14.30;99.90;;;;;;5025408;28;20572;-60
2023/06/10 04:58:57;;;;;;;14.23;7.47;;;14.40;99.90;;;;;;5025222;28;20056;-60
2023/06/10 05:01:23;;;;;;;14.15;7.07;;;14.40;99.90;;;;;;5014077;28;20129;-60
2023/06/10 05:03:48;;;;;;;12.57;7.03;;;14.50;99.90;;;;;;5027781;28;20041;-61
2023/06/10 05:06:14;;;;;;;15.43;7.55;;;14.50;99.90;;;;;;5004555;28;20048;-59
2023/06/10 05:08:40;;;;;;;15.93;7.50;;;14.60;99.90;;;;;;5010597;28;20045;-60
2023/06/10 05:11:06;;;;;;;16.05;7.38;;;14.60;99.90;;;;;;5038299;28;20049;-60
2023/06/10 05:13:32;;;;;;;16.95;7.85;;;14.60;99.90;;;;;;5025448;28;20041;-60
2023/06/10 05:15:58;;;;;;;16.95;7.50;;;14.70;99.90;;;;;;5026872;28;20049;-61
2023/06/10 05:18:24;;;;;;;16.25;7.85;;;14.80;99.90;;;;;;5020147;28;21753;-60
2023/06/10 05:20:50;;;;;;;18.33;7.38;;;14.80;99.90;;;;;;5000557;28;20033;-60
2023/06/10 05:23:15;;;;;;;17.20;7.43;;;14.90;99.90;;;;;;5016273;28;20053;-60
2023/06/10 05:25:42;;;;;;;19.80;7.63;;;15.00;99.90;;;;;;5020327;28;20057;-60
2023/06/10 05:28:11;;;;;;;17.15;7.15;;;15.00;99.90;;;;;;5028159;28;20047;-60
2023/06/10 05:30:37;;;;;;;16.10;7.18;;;15.10;99.90;;;;;;5026091;28;20048;-60
2023/06/10 05:33:04;;;;;;;17.77;7.20;;;15.10;99.90;;;;;;5031418;28;20148;-61
2023/06/10 05:35:30;;;;;;;11.35;6.82;;;15.10;99.90;;;;;;5030839;28;20055;-59
2023/06/10 05:37:55;;;;;;;15.50;6.97;;;15.20;99.90;;;;;;5031665;28;21299;-61
2023/06/10 05:40:21;;;;;;;10.10;6.45;;;15.20;99.90;;;;;;5012266;28;20182;-61
2023/06/10 05:42:47;;;;;;;12.52;6.80;;;15.20;99.90;;;;;;5030600;28;20045;-59
2023/06/10 05:45:13;;;;;;;10.85;6.50;;;15.30;99.90;;;;;;5030870;28;20183;-59
2023/06/10 05:47:41;;;;;;;12.80;7.13;;;15.30;99.90;;;;;;5026081;28;20116;-60
2023/06/10 05:50:10;;;;;;;13.75;6.88;;;15.40;99.90;;;;;;5030068;28;20037;-59
2023/06/10 05:52:36;;;;;;;14.98;7.13;;;15.40;99.90;;;;;;5034769;28;20136;-60
2023/06/10 05:55:05;;;;;;;12.98;6.85;;;15.40;99.90;;;;;;5029596;28;20053;-61
2023/06/10 05:57:31;;;;;;;17.83;7.07;;;15.50;99.90;;;;;;5035074;28;20049;-60
2023/06/10 05:59:57;;;;;;;14.95;6.82;;;15.50;99.90;;;;;;5035166;28;20134;-62
2023/06/10 06:02:23;;;;;;;13.93;6.18;;;15.60;99.90;;;;;;5028492;28;21045;-60
2023/06/10 06:04:48;;;;;;;17.10;7.55;;;15.60;99.90;;;;;;5027558;28;20158;-61
2023/06/10 06:07:14;;;;;;;14.75;6.30;;;15.70;99.90;;;;;;5039819;28;20037;-60
2023/06/10 06:09:40;;;;;;;13.38;6.30;;;15.80;99.90;;;;;;5029711;28;20180;-60
2023/06/10 06:12:07;;;;;;;14.13;7.07;;;15.80;99.90;;;;;;5028394;28;20052;-59
2023/06/10 06:14:36;;;;;;;17.20;6.75;;;15.90;99.90;;;;;;5017988;28;20084;-60
2023/06/10 06:17:02;;;;;;;11.85;6.72;;;16.00;99.90;;;;;;5026636;28;20052;-61
2023/06/10 06:19:28;;;;;;;12.88;6.53;;;16.00;99.90;;;;;;5031494;28;20398;-61
2023/06/10 06:21:53;;;;;;;11.77;6.28;;;16.10;99.90;;;;;;5026225;28;20041;-61
2023/06/10 06:24:19;;;;;;;11.70;5.97;;;16.20;99.90;;;;;;5021474;28;20046;-60
2023/06/10 06:26:45;;;;;;;9.93;6.25;;;16.20;99.90;;;;;;5026573;28;20083;-60
2023/06/10 06:29:11;;;;;;;15.15;6.15;;;16.30;99.90;;;;;;5025476;28;20053;-61
2023/06/10 06:31:36;;;;;;;12.27;6.00;;;16.40;99.90;;;;;;5024768;28;20728;-59
2023/06/10 06:34:02;;;;;;;14.23;5.82;;;16.50;99.90;;;;;;5029449;28;20493;-60
2023/06/10 06:36:28;;;;;;;13.00;6.15;;;16.60;99.90;;;;;;5028368;28;20065;-60
2023/06/10 06:38:54;;;;;;;13.05;6.15;;;16.70;99.90;;;;;;5011722;28;20043;-61
2023/06/10 06:41:21;;;;;;;12.90;6.50;;;16.80;99.90;;;;;;5028553;28;20037;-60
2023/06/10 06:43:47;;;;;;;10.75;5.78;;;16.90;99.90;;;;;;5025074;28;20049;-60
2023/06/10 06:46:13;;;;;;;13.95;6.13;;;17.00;99.90;;;;;;5027395;28;20063;-60
2023/06/10 06:48:39;;;;;;;8.65;5.45;;;17.10;99.90;;;;;;5026013;28;20041;-60
2023/06/10 06:51:05;;;;;;;11.95;6.13;;;17.20;99.90;;;;;;5023366;28;20481;-59
2023/06/10 06:53:31;;;;;;;10.68;5.82;;;17.30;99.90;;;;;;5025491;28;20052;-61
2023/06/10 06:55:56;;;;;;;10.55;5.53;;;17.40;99.90;;;;;;5031346;28;20048;-60
2023/06/10 06:58:22;;;;;;;12.48;5.30;;;17.50;99.90;;;;;;5026034;28;20052;-60
2023/06/10 07:00:48;;;;;;;9.57;5.20;;;17.60;99.90;;;;;;4977346;28;20045;-61
2023/06/10 07:03:13;;;;;;;13.00;5.63;;;17.70;99.90;;;;;;5017270;28;20034;-61
2023/06/10 07:05:39;;;;;;;8.85;5.30;;;17.80;99.90;;;;;;5024027;28;20052;-59
2023/06/10 07:08:05;;;;;;;9.48;5.22;;;17.90;99.90;;;;;;4999819;28;20037;-61
2023/06/10 07:10:31;;;;;;;11.82;5.70;;;18.10;99.90;;;;;;5008722;28;20191;-60
2023/06/10 07:12:57;;;;;;;9.77;5.50;;;18.20;99.90;;;;;;5018655;28;20064;-60
2023/06/10 07:15:22;;;;;;;13.88;5.90;;;18.30;99.90;;;;;;5025018;28;20428;-61
2023/06/10 07:17:49;;;;;;;11.15;5.45;;;18.40;99.90;;;;;;5015416;28;20571;-60
2023/06/10 07:20:15;;;;;;;10.05;5.10;;;18.50;99.90;;;;;;5007507;28;20045;-62
2023/06/10 07:22:42;;;;;;;11.88;5.63;;;18.60;99.90;;;;;;5020354;28;20041;-60
2023/06/10 07:25:08;;;;;;;17.42;5.78;;;18.70;99.90;;;;;;5024558;28;20134;-62
2023/06/10 07:27:35;;;;;;;10.38;5.78;;;18.70;99.90;;;;;;5024729;28;20075;-61
2023/06/10 07:30:02;;;;;;;12.10;5.47;;;18.80;99.90;;;;;;5028729;28;20057;-61
2023/06/10 07:32:27;;;;;;;11.38;5.53;;;18.90;99.90;;;;;;5033652;28;20098;-60
2023/06/10 07:34:53;;;;;;;12.23;5.40;;;19.00;99.90;;;;;;5034617;28;20033;-60
2023/06/10 07:37:19;;;;;;;9.40;5.13;;;19.10;99.90;;;;;;5015592;28;20392;-61
2023/06/10 07:39:45;;;;;;;7.25;4.80;;;19.20;99.90;;;;;;5033703;28;20076;-60
2023/06/10 07:42:11;;;;;;;10.82;5.22;;;19.20;99.90;;;;;;5031345;28;20046;-61
2023/06/10 07:44:36;;;;;;;8.50;4.88;;;19.30;99.90;;;;;;5036672;28;20033;-64
2023/06/10 07:47:02;;;;;;;11.10;5.07;;;19.40;99.90;;;;;;5016777;28;20049;-66
2023/06/10 07:49:28;;;;;;;10.43;5.05;;;19.50;99.90;;;;;;5031870;28;20097;-64
2023/06/10 07:51:55;;;;;;;10.13;5.07;;;19.60;99.90;;;;;;5033890;28;20036;-65
2023/06/10 07:54:21;;;;;;;11.18;4.82;;;19.60;99.90;;;;;;5021233;28;20045;-64
2023/06/10 07:56:47;;;;;;;7.72;4.50;;;19.80;99.90;;;;;;5025421;28;20049;-65
2023/06/10 07:59:14;;;;;;;8.93;4.97;;;19.90;99.90;;;;;;5012745;28;20583;-66
2023/06/10 08:01:40;;;;;;;8.57;5.00;;;20.00;99.90;;;;;;5035362;28;20037;-65
2023/06/10 08:04:06;;;;;;;7.80;4.85;;;20.10;99.90;;;;;;5013743;28;20102;-64
2023/06/10 08:06:32;;;;;;;12.10;4.82;;;20.20;99.90;;;;;;5030295;28;20511;-64
2023/06/10 08:08:59;;;;;;;8.93;5.03;;;20.30;99.90;;;;;;5014150;28;20037;-65
2023/06/10 08:11:28;;;;;;;8.45;4.50;;;20.40;99.90;;;;;;5021609;28;20404;-64
2023/06/10 08:13:54;;;;;;;9.85;5.10;;;20.50;99.90;;;;;;5022672;28;20111;-65
2023/06/10 08:16:19;;;;;;;9.40;5.13;;;20.50;99.90;;;;;;5026946;28;20044;-64
2023/06/10 08:18:45;;;;;;;9.68;4.57;;;20.50;99.90;;;;;;5029377;28;20041;-67
2023/06/10 08:21:11;;;;;;;10.40;4.68;;;20.60;99.90;;;;;;5016886;28;20045;-64
2023/06/10 08:23:37;;;;;;;9.65;4.95;;;20.70;99.90;;;;;;5031028;28;20044;-65
2023/06/10 08:26:03;;;;;;;10.43;4.40;;;20.80;99.90;;;;;;5034659;28;20477;-64
2023/06/10 08:28:29;;;;;;;10.98;4.45;;;20.90;99.90;;;;;;5034770;28;20196;-66
2023/06/10 08:30:54;;;;;;;11.68;4.97;;;21.00;99.90;;;;;;5033859;28;20123;-65
2023/06/10 08:33:20;;;;;;;9.02;4.30;;;21.10;99.90;;;;;;5019720;28;20470;-67
2023/06/10 08:35:46;;;;;;;11.45;4.55;;;21.20;99.90;;;;;;5017627;28;20045;-67
2023/06/10 08:38:11;;;;;;;8.55;4.60;;;21.30;99.90;;;;;;5022181;28;20048;-64
2023/06/10 08:40:37;;;;;;;8.95;4.80;;;21.40;99.90;;;;;;5033041;28;20064;-65
2023/06/10 08:43:10;;;;;;;10.50;4.78;;;21.50;99.90;;;;;;5036276;28;20041;-64
2023/06/10 08:45:37;;;;;;;8.55;4.78;;;21.60;99.90;;;;;;5035866;28;20048;-65
2023/06/10 08:48:06;;;;;;;9.57;4.25;;;21.70;99.90;;;;;;5039672;28;20046;-65
2023/06/10 08:50:36;;;;;;;9.30;4.88;;;21.80;99.90;;;;;;5002229;28;20042;-65
2023/06/10 08:53:06;;;;;;;8.60;4.60;;;22.00;99.90;;;;;;5030393;28;20116;-66
2023/06/10 08:55:45;;;;;;;7.60;4.00;;;22.10;99.90;;;;;;5033285;28;20056;-65
2023/06/10 08:58:12;;;;;;;11.00;4.28;;;22.30;99.90;;;;;;5025682;28;20507;-65
2023/06/10 09:00:38;;;;;;;8.70;4.40;;;22.30;99.90;;;;;;5020003;28;20068;-65
2023/06/10 09:03:05;;;;;;;10.18;4.53;;;22.40;99.80;;;;;;5020884;28;20558;-64
2023/06/10 09:05:35;;;;;;;10.27;4.00;;;22.50;99.60;;;;;;5032504;28;20044;-64
2023/06/10 09:08:01;;;;;;;8.90;4.10;;;22.60;99.60;;;;;;5033088;28;20060;-66
2023/06/10 09:10:27;;;;;;;8.23;4.07;;;22.80;99.50;;;;;;5038396;28;20053;-65
2023/06/10 09:12:53;;;;;;;11.88;4.47;;;22.80;99.00;;;;;;5035677;28;20064;-65
2023/06/10 09:15:20;;;;;;;7.90;4.00;;;23.00;98.40;;;;;;5021341;28;20156;-66
2023/06/10 09:17:46;;;;;;;10.13;4.20;;;23.00;98.10;;;;;;5018012;28;20041;-64
2023/06/10 09:20:12;;;;;;;10.20;4.50;;;23.10;97.70;;;;;;5044498;28;20041;-67
2023/06/10 09:22:38;;;;;;;11.52;4.68;;;23.20;97.30;;;;;;5012843;28;20049;-66
2023/06/10 09:25:05;;;;;;;14.50;4.00;;;23.20;96.70;;;;;;5032013;28;20045;-65
2023/06/10 09:27:34;;;;;;;12.20;4.10;;;23.30;96.30;;;;;;5015563;28;20053;-66
2023/06/10 09:30:00;;;;;;;6.22;3.78;;;23.40;96.00;;;;;;5032524;28;20068;-66
2023/06/10 09:32:27;;;;;;;6.95;4.45;;;23.40;95.60;;;;;;5032190;28;20096;-65
2023/06/10 09:34:53;;;;;;;7.45;4.18;;;23.60;95.50;;;;;;5032509;28;20705;-65
2023/06/10 09:37:25;;;;;;;8.27;3.75;;;23.60;94.80;;;;;;5013773;28;20042;-65
2023/06/10 09:40:08;;;;;;;9.70;3.92;;;23.70;94.70;;;;;;5029936;28;20037;-64
2023/06/10 09:42:35;;;;;;;7.53;3.92;;;23.90;94.80;;;;;;5020370;28;20162;-66
2023/06/10 09:45:07;;;;;;;12.82;4.00;;;24.00;94.10;;;;;;5033534;28;20065;-65
2023/06/10 09:47:32;;;;;;;9.53;4.20;;;24.10;93.60;;;;;;5051934;28;20115;-64
2023/06/10 09:49:59;;;;;;;7.53;4.00;;;24.10;92.80;;;;;;5017385;28;20334;-65
2023/06/10 09:52:26;;;;;;;9.80;3.90;;;24.10;92.20;;;;;;5035743;28;20040;-64
2023/06/10 09:54:53;;;;;;;16.20;4.00;;;24.30;92.20;;;;;;5033730;28;20099;-66
2023/06/10 09:57:20;;;;;;;12.20;4.53;;;24.30;91.60;;;;;;5033325;28;20049;-66
2023/06/10 09:59:46;;;;;;;5.97;4.10;;;24.50;91.60;;;;;;4990416;28;20413;-63
2023/06/10 10:02:18;;;;;;;10.07;3.65;;;24.60;91.30;;;;;;5017839;28;20033;-60
2023/06/10 10:04:44;;;;;;;7.63;3.90;;;24.80;91.30;;;;;;5024344;28;20044;-61
2023/06/10 10:07:11;;;;;;;8.00;3.88;;;25.00;90.70;;;;;;5030110;28;20034;-61
2023/06/10 10:09:41;;;;;;;8.55;4.05;;;25.00;90.10;;;;;;5034361;28;20048;-61
2023/06/10 10:12:14;;;;;;;8.63;4.32;;;25.10;87.40;;;;;;5029840;28;20042;-61
2023/06/10 10:14:48;;;;;;;7.07;4.18;;;25.20;87.50;;;;;;5032280;28;20524;-61
2023/06/10 10:17:15;;;;;;;7.78;4.10;;;25.30;87.20;;;;;;5027963;28;20478;-60
2023/06/10 10:19:53;;;;;;;10.77;3.88;;;25.40;86.30;;;;;;5034699;28;20047;-61
2023/06/10 10:22:25;;;;;;;9.25;3.95;;;25.40;84.60;;;;;;5034211;28;20095;-61
2023/06/10 10:24:55;;;;;;;8.63;3.83;;;25.50;86.30;;;;;;5038723;28;20033;-60
2023/06/10 10:27:45;;;;;;;8.25;3.95;;;25.70;85.90;;;;;;5040332;28;20037;-61
2023/06/10 10:30:13;;;;;;;11.80;4.68;;;25.70;83.90;;;;;;5035611;28;20041;-60
2023/06/10 10:32:50;;;;;;;7.40;4.28;;;25.80;82.40;;;;;;5027813;28;20486;-61
2023/06/10 10:35:23;;;;;;;5.85;4.13;;;25.90;82.30;;;;;;5035048;28;20767;-60
2023/06/10 10:37:51;;;;;;;12.30;4.20;;;26.00;82.30;;;;;;5035287;28;20086;-60
2023/06/10 10:40:17;;;;;;;7.80;3.95;;;26.10;82.90;;;;;;5035751;28;20123;-60
2023/06/10 10:42:43;;;;;;;9.77;4.10;;;26.20;81.60;;;;;;5032152;28;20458;-60
2023/06/10 10:45:09;;;;;;;8.70;4.65;;;26.30;81.50;;;;;;5033703;28;20489;-61
2023/06/10 10:47:37;;;;;;;7.20;4.18;;;26.40;79.60;;;;;;5031153;28;20035;-61
2023/06/10 10:50:16;;;;;;;5.35;3.92;;;26.40;78.70;;;;;;5035265;28;20033;-61
2023/06/10 10:53:19;;;;;;;8.65;4.43;;;26.50;79.80;;;;;;5035959;28;20043;-61
2023/06/10 10:55:57;;;;;;;;;;;26.60;79.60;;;;;;5033947;28;20406;-61
2023/06/10 10:58:25;;;;;;;11.30;4.32;;;26.70;80.10;;;;;;5032164;28;19925;-61
2023/06/10 11:00:51;;;;;;;9.35;4.00;;;26.80;79.80;;;;;;5035078;28;20067;-60
2023/06/10 11:03:17;;;;;;;7.25;3.75;;;26.90;78.60;;;;;;5035131;28;20034;-61
2023/06/10 11:05:48;;;;;;;8.35;3.97;;;27.00;77.00;;;;;;5032876;28;20048;-61
2023/06/10 11:08:34;;;;;;;7.07;3.97;;;27.10;76.20;;;;;;5033838;28;20041;-61
2023/06/10 11:11:00;;;;;;;6.78;4.00;;;27.10;76.00;;;;;;5032493;28;20038;-61
2023/06/10 11:13:27;;;;;;;6.45;4.32;;;27.10;75.30;;;;;;5033758;28;20051;-61
2023/06/10 11:15:58;;;;;;;8.43;3.90;;;27.20;75.50;;;;;;5029454;28;20402;-61
2023/06/10 11:18:25;;;;;;;6.97;3.85;;;27.30;74.10;;;;;;5033683;28;20390;-61
2023/06/10 11:21:01;;;;;;;7.07;3.88;;;27.40;73.50;;;;;;5031884;28;20159;-61
2023/06/10 11:23:32;;;;;;;7.25;3.85;;;27.40;72.60;;;;;;5028360;28;20044;-61
2023/06/10 11:26:21;;;;;;;12.60;3.88;;;27.50;72.90;;;;;;5032186;28;20597;-61
2023/06/10 11:28:46;;;;;;;8.15;3.70;;;27.60;72.90;;;;;;5032513;28;20040;-62
2023/06/10 11:31:29;;;;;;;8.13;3.45;;;27.70;72.30;;;;;;5028194;28;20473;-62
2023/06/10 11:33:57;;;;;;;7.68;3.92;;;27.80;70.20;;;;;;5039566;28;20052;-67
2023/06/10 11:36:24;;;;;;;7.38;3.83;;;27.90;70.30;;;;;;5024998;28;20033;-68
2023/06/10 11:38:55;;;;;;;6.82;3.67;;;28.00;69.60;;;;;;5036295;28;20041;-68
2023/06/10 11:41:21;;;;;;;10.35;3.42;;;28.00;68.60;;;;;;5035783;28;20124;-68
2023/06/10 11:43:47;;;;;;;7.55;3.38;;;28.10;68.90;;;;;;5034873;28;20128;-68
2023/06/10 11:46:14;;;;;;;8.30;3.42;;;28.20;68.60;;;;;;5032188;28;20075;-68
2023/06/10 11:48:52;;;;;;;8.50;3.70;;;28.30;67.90;;;;;;5025935;28;20765;-68
2023/06/10 11:51:18;;;;;;;9.93;3.85;;;28.30;67.60;;;;;;5034239;28;20477;-67
2023/06/10 11:53:48;;;;;;;6.50;3.35;;;28.40;68.10;;;;;;5032560;28;20040;-68
2023/06/10 11:56:20;;;;;;;8.85;3.55;;;28.60;68.80;;;;;;5033891;28;20038;-68
2023/06/10 11:58:51;;;;;;;10.25;3.65;;;28.80;66.70;;;;;;5034581;28;20115;-67
2023/06/10 12:01:25;;;;;;;7.43;3.60;;;28.90;65.60;;;;;;5017423;28;20037;-68
2023/06/10 12:04:18;;;;;;;5.13;3.17;;;29.00;64.10;;;;;;5038224;28;20068;-68
2023/06/10 12:06:48;;;;;;;6.80;3.28;;;29.00;63.50;;;;;;5021294;28;20044;-67
2023/06/10 12:09:27;;;;;;;9.38;3.92;;;29.00;63.50;;;;;;5046046;28;20038;-69
2023/06/10 12:11:59;;;;;;;8.02;3.40;;;29.10;64.00;;;;;;5035929;28;20098;-68
2023/06/10 12:14:54;;;;;;;8.07;3.90;;;29.20;64.20;;;;;;5033415;28;20045;-67
2023/06/10 12:17:22;;;;;;;7.88;3.53;;;29.10;63.50;;;;;;5014491;28;20073;-67
2023/06/10 12:19:48;;;;;;;14.52;3.70;;;29.20;64.60;;;;;;5012973;28;20045;-67
2023/06/10 12:22:14;;;;;;;7.32;3.53;;;29.40;64.60;;;;;;5032349;28;20036;-68
2023/06/10 12:24:59;;;;;;;9.02;3.65;;;29.40;64.50;;;;;;4998092;28;20048;-68
2023/06/10 12:27:25;;;;;;;11.02;3.33;;;29.40;64.80;;;;;;5026656;28;20036;-68
2023/06/10 12:29:53;;;;;;;7.03;3.40;;;29.40;63.80;;;;;;5034861;28;20041;-67
2023/06/10 12:32:22;;;;;;;6.15;3.47;;;29.40;63.20;;;;;;5030083;28;20049;-68
2023/06/10 12:34:48;;;;;;;5.15;3.33;;;29.40;64.00;;;;;;5034434;28;20110;-68
2023/06/10 12:37:14;;;;;;;5.10;3.20;;;29.40;63.40;;;;;;5032839;28;20048;-68
2023/06/10 12:39:41;;;;;;;8.23;3.70;;;29.40;63.20;;;;;;5031253;28;20485;-67
2023/06/10 12:42:09;;;;;;;8.30;3.38;;;29.30;62.60;;;;;;5018663;28;20186;-67
2023/06/10 12:44:39;;;;;;;8.45;3.60;;;29.10;62.40;;;;;;5037751;28;20490;-68
2023/06/10 12:47:09;;;;;;;8.02;3.58;;;29.10;63.10;;;;;;5032707;28;20378;-68